Time;durP1;ratioP1;P1;durP2;ratioP2;P2;SDS_P1;SDS_P2;PMS_P1;PMS_P2;Temp;Humidity;BMP_temperature;BMP_pressure;BME280_temperature;BME280_humidity;BME280_pressure;Samples;Min_cycle;Max_cycle;Signal;HPM_P1;HPM_P2
2023/12/31 00:00:58;;;;;;;2.90;1.33;;;10.80;99.90;;;;;;4959260;28;20222;-75
2023/12/31 00:03:24;;;;;;;2.10;1.23;;;10.70;99.90;;;;;;4992485;28;20198;-75
2023/12/31 00:05:50;;;;;;;1.90;0.97;;;10.70;99.90;;;;;;4974415;28;20268;-75
2023/12/31 00:08:15;;;;;;;3.00;1.03;;;10.70;99.90;;;;;;4982024;28;20178;-74
2023/12/31 00:10:41;;;;;;;3.77;1.10;;;10.70;99.90;;;;;;4976544;28;20692;-74
2023/12/31 00:13:07;;;;;;;2.00;1.30;;;10.70;99.90;;;;;;4974646;28;20203;-74
2023/12/31 00:15:33;;;;;;;6.43;1.50;;;10.60;99.90;;;;;;4964441;28;20586;-75
2023/12/31 00:17:59;;;;;;;2.50;1.20;;;10.60;99.90;;;;;;4974971;28;20171;-75
2023/12/31 00:20:24;;;;;;;2.30;1.40;;;10.60;99.90;;;;;;5008719;28;20178;-75
2023/12/31 00:22:50;;;;;;;2.27;1.20;;;10.60;99.90;;;;;;4997094;28;20225;-75
2023/12/31 00:25:16;;;;;;;2.27;1.07;;;10.50;99.90;;;;;;4978949;28;20804;-74
2023/12/31 00:27:42;;;;;;;2.77;1.43;;;10.50;99.90;;;;;;4975980;28;20182;-75
2023/12/31 00:30:08;;;;;;;2.00;1.20;;;10.50;99.90;;;;;;4959255;28;20590;-75
2023/12/31 00:32:34;;;;;;;1.92;1.27;;;10.50;99.90;;;;;;4983070;28;20692;-76
2023/12/31 00:35:00;;;;;;;1.70;1.23;;;10.50;99.90;;;;;;4974954;28;20183;-74
2023/12/31 00:37:28;;;;;;;1.90;1.10;;;10.50;99.90;;;;;;4974880;28;20577;-75
2023/12/31 00:39:53;;;;;;;3.30;1.40;;;10.60;99.90;;;;;;4974634;28;20176;-75
2023/12/31 00:42:19;;;;;;;3.50;1.93;;;10.60;99.90;;;;;;4998919;28;20606;-75
2023/12/31 00:44:45;;;;;;;4.27;1.87;;;10.60;99.90;;;;;;4975497;28;20648;-75
2023/12/31 00:47:10;;;;;;;5.37;2.20;;;10.60;99.90;;;;;;4979530;28;20206;-74
2023/12/31 00:49:36;;;;;;;3.27;2.03;;;10.60;99.90;;;;;;4993852;28;20248;-74
2023/12/31 00:52:02;;;;;;;6.70;1.77;;;10.70;99.90;;;;;;4977696;28;20757;-75
2023/12/31 00:54:27;;;;;;;5.10;1.67;;;10.70;99.90;;;;;;5011381;28;20181;-74
2023/12/31 00:56:53;;;;;;;2.63;1.73;;;10.80;99.90;;;;;;4976971;28;20746;-74
2023/12/31 00:59:19;;;;;;;1.90;1.20;;;10.80;99.90;;;;;;4993254;28;20186;-74
2023/12/31 01:01:45;;;;;;;4.60;1.20;;;10.80;99.90;;;;;;5008809;28;20202;-74
2023/12/31 01:04:10;;;;;;;2.33;1.13;;;10.80;99.90;;;;;;5011255;28;20236;-74
2023/12/31 01:06:36;;;;;;;2.50;1.20;;;10.90;99.90;;;;;;4992870;28;20801;-74
2023/12/31 01:09:02;;;;;;;2.60;1.73;;;10.90;99.90;;;;;;4977385;28;20541;-74
2023/12/31 01:11:28;;;;;;;2.07;1.30;;;10.90;99.90;;;;;;4977302;28;20536;-74
2023/12/31 01:13:54;;;;;;;2.70;1.27;;;10.90;99.90;;;;;;4993048;28;20593;-75
2023/12/31 01:16:20;;;;;;;2.22;1.70;;;10.90;99.90;;;;;;5009436;28;20194;-74
2023/12/31 01:18:45;;;;;;;2.33;1.50;;;11.00;99.90;;;;;;4993509;28;20265;-74
2023/12/31 01:21:12;;;;;;;2.80;1.30;;;11.00;99.90;;;;;;4977381;28;20177;-74
2023/12/31 01:23:38;;;;;;;2.20;1.20;;;11.00;99.90;;;;;;5009407;28;20257;-74
2023/12/31 01:26:04;;;;;;;2.37;1.40;;;11.00;99.90;;;;;;4976703;28;20186;-74
2023/12/31 01:28:29;;;;;;;2.20;1.40;;;11.00;99.90;;;;;;4993105;28;20865;-74
2023/12/31 01:30:55;;;;;;;3.53;2.17;;;11.00;99.90;;;;;;4977030;28;20261;-74
2023/12/31 01:33:21;;;;;;;4.03;2.03;;;10.90;99.90;;;;;;4976738;28;20671;-75
2023/12/31 01:35:47;;;;;;;4.97;1.87;;;10.90;99.90;;;;;;4976503;28;20194;-75
2023/12/31 01:38:13;;;;;;;2.13;1.73;;;10.80;99.90;;;;;;5010876;28;20232;-74
2023/12/31 01:40:39;;;;;;;3.80;1.70;;;10.80;99.90;;;;;;5010719;28;20178;-75
2023/12/31 01:43:05;;;;;;;1.90;1.20;;;10.80;99.90;;;;;;5010462;28;20190;-75
2023/12/31 01:45:30;;;;;;;3.30;1.40;;;10.80;99.90;;;;;;4976328;28;20186;-75
2023/12/31 01:47:57;;;;;;;1.80;1.50;;;10.80;99.90;;;;;;4992973;28;20178;-74
2023/12/31 01:50:24;;;;;;;1.83;1.10;;;10.70;99.90;;;;;;4976813;28;20310;-75
2023/12/31 01:52:51;;;;;;;2.70;1.50;;;10.70;99.90;;;;;;4976729;28;20209;-75
2023/12/31 01:55:17;;;;;;;2.30;1.65;;;10.80;99.90;;;;;;4992510;28;20237;-75
2023/12/31 01:57:43;;;;;;;3.07;1.63;;;10.80;99.90;;;;;;4992739;28;20178;-75
2023/12/31 02:00:10;;;;;;;2.60;1.20;;;10.70;99.90;;;;;;5010643;28;20584;-75
2023/12/31 02:02:42;;;;;;;1.98;1.48;;;10.80;99.90;;;;;;4976680;28;20585;-75
2023/12/31 02:05:08;;;;;;;2.80;1.50;;;10.70;99.90;;;;;;5000597;28;20698;-75
2023/12/31 02:07:33;;;;;;;2.10;1.40;;;10.70;99.90;;;;;;4976280;28;20340;-74
2023/12/31 02:09:59;;;;;;;2.30;1.33;;;10.70;99.90;;;;;;4976530;28;20664;-75
2023/12/31 02:12:25;;;;;;;2.00;1.10;;;10.70;99.90;;;;;;5010518;28;20213;-76
2023/12/31 02:14:51;;;;;;;1.90;1.30;;;10.70;99.90;;;;;;4976636;28;20212;-76
2023/12/31 02:17:16;;;;;;;2.93;1.53;;;10.70;99.90;;;;;;4992098;28;20629;-76
2023/12/31 02:19:42;;;;;;;2.33;1.33;;;10.70;99.90;;;;;;4976667;28;20543;-75
2023/12/31 02:22:08;;;;;;;2.70;2.10;;;10.70;99.90;;;;;;4976691;28;20513;-74
2023/12/31 02:24:45;;;;;;;2.50;1.80;;;10.60;99.90;;;;;;5003299;28;20710;-75
2023/12/31 02:27:11;;;;;;;2.05;1.55;;;10.70;99.90;;;;;;4998124;28;21340;-76
2023/12/31 02:29:37;;;;;;;3.60;1.03;;;10.70;99.90;;;;;;4973099;28;20273;-74
2023/12/31 02:32:03;;;;;;;2.17;1.20;;;10.70;99.90;;;;;;4957074;28;20286;-75
2023/12/31 02:34:28;;;;;;;2.80;1.73;;;10.70;99.90;;;;;;4957156;28;20186;-75
2023/12/31 02:36:54;;;;;;;2.20;1.60;;;10.70;99.90;;;;;;4961740;28;20206;-75
2023/12/31 02:39:23;;;;;;;2.47;1.40;;;10.70;99.90;;;;;;4990714;28;20190;-75
2023/12/31 02:41:48;;;;;;;1.63;1.15;;;10.70;99.90;;;;;;4976469;28;20602;-75
2023/12/31 02:44:14;;;;;;;3.00;1.30;;;10.70;99.90;;;;;;4976625;28;20175;-75
2023/12/31 02:46:40;;;;;;;1.95;1.30;;;10.80;99.90;;;;;;4961672;28;20240;-75
2023/12/31 02:49:08;;;;;;;1.87;1.17;;;10.70;99.90;;;;;;4977871;28;20335;-75
2023/12/31 02:51:34;;;;;;;1.80;1.23;;;10.80;99.90;;;;;;4986261;28;20188;-75
2023/12/31 02:54:00;;;;;;;2.92;1.55;;;10.80;99.90;;;;;;5010836;23;20302;-74
2023/12/31 02:56:26;;;;;;;4.40;2.13;;;10.80;99.90;;;;;;4994977;28;20277;-74
2023/12/31 02:58:52;;;;;;;1.83;1.40;;;10.70;99.90;;;;;;4979223;28;20272;-75
2023/12/31 03:01:18;;;;;;;3.00;1.60;;;10.80;99.90;;;;;;4995811;28;20186;-75
2023/12/31 03:03:43;;;;;;;2.53;1.40;;;10.80;99.90;;;;;;4967372;28;20206;-74
2023/12/31 03:06:14;;;;;;;2.07;1.43;;;10.80;99.90;;;;;;4959537;28;20641;-75
2023/12/31 03:08:40;;;;;;;2.88;1.80;;;10.90;99.90;;;;;;4959962;28;20657;-75
2023/12/31 03:11:08;;;;;;;3.03;2.13;;;10.90;99.90;;;;;;4962782;28;20242;-75
2023/12/31 03:13:34;;;;;;;3.75;1.65;;;10.90;99.90;;;;;;4959897;28;20623;-75
2023/12/31 03:16:05;;;;;;;2.00;1.40;;;10.90;99.90;;;;;;4959223;28;20175;-75
2023/12/31 03:18:31;;;;;;;2.88;1.23;;;10.90;99.90;;;;;;4959786;28;20511;-75
2023/12/31 03:20:57;;;;;;;2.15;1.63;;;11.00;99.90;;;;;;4959447;28;20270;-75
2023/12/31 03:23:22;;;;;;;2.03;1.50;;;11.00;99.90;;;;;;4959126;28;20906;-75
2023/12/31 03:25:48;;;;;;;2.43;1.43;;;11.00;99.90;;;;;;4974811;28;20191;-75
2023/12/31 03:28:14;;;;;;;2.50;1.50;;;11.00;99.90;;;;;;4975696;28;20638;-75
2023/12/31 03:30:40;;;;;;;2.40;1.20;;;11.00;99.90;;;;;;4959510;28;20544;-75
2023/12/31 03:33:07;;;;;;;1.95;1.55;;;11.00;99.90;;;;;;4967841;28;20744;-75
2023/12/31 03:35:33;;;;;;;4.27;2.23;;;11.00;99.90;;;;;;4974982;28;20182;-75
2023/12/31 03:37:59;;;;;;;2.33;1.47;;;11.00;99.90;;;;;;4992710;28;20582;-75
2023/12/31 03:40:26;;;;;;;2.20;1.30;;;11.00;99.90;;;;;;4959338;28;20590;-75
2023/12/31 03:42:53;;;;;;;3.60;2.17;;;11.00;99.90;;;;;;4974996;28;20353;-75
2023/12/31 03:45:18;;;;;;;3.83;1.90;;;11.00;99.90;;;;;;4958792;28;20257;-75
2023/12/31 03:47:45;;;;;;;2.00;1.25;;;11.00;99.90;;;;;;4974239;28;21066;-74
2023/12/31 03:50:11;;;;;;;1.60;1.10;;;11.00;99.90;;;;;;4979110;28;20206;-75
2023/12/31 03:52:38;;;;;;;3.47;1.43;;;11.00;99.90;;;;;;4958866;28;20587;-75
2023/12/31 03:55:04;;;;;;;4.43;1.95;;;11.00;99.90;;;;;;4958687;28;20175;-75
2023/12/31 03:57:30;;;;;;;1.90;1.50;;;11.00;99.90;;;;;;4992650;28;20310;-75
2023/12/31 03:59:56;;;;;;;2.37;1.27;;;11.00;99.90;;;;;;4992517;28;20261;-75
2023/12/31 04:02:21;;;;;;;1.70;1.10;;;11.00;99.90;;;;;;4992357;28;20716;-74
2023/12/31 04:04:47;;;;;;;3.00;1.50;;;11.00;99.90;;;;;;4974781;28;20175;-75
2023/12/31 04:07:13;;;;;;;1.90;1.10;;;10.90;99.90;;;;;;4974355;28;20182;-74
2023/12/31 04:09:38;;;;;;;2.00;1.27;;;11.00;99.90;;;;;;4958496;28;20618;-74
2023/12/31 04:12:05;;;;;;;1.90;1.20;;;11.00;99.90;;;;;;4957933;28;20194;-75
2023/12/31 04:14:31;;;;;;;2.50;1.40;;;11.00;99.90;;;;;;4974296;28;20636;-75
2023/12/31 04:16:56;;;;;;;2.13;1.20;;;10.90;99.90;;;;;;4991437;28;20179;-74
2023/12/31 04:19:22;;;;;;;2.20;1.03;;;11.00;99.90;;;;;;4973926;28;20186;-75
2023/12/31 04:21:48;;;;;;;3.53;1.30;;;10.90;99.90;;;;;;4974497;28;20616;-75
2023/12/31 04:24:14;;;;;;;2.23;1.20;;;11.00;99.90;;;;;;4958115;28;20203;-75
2023/12/31 04:26:46;;;;;;;1.90;1.20;;;11.00;99.90;;;;;;4960675;28;20205;-75
2023/12/31 04:29:12;;;;;;;2.10;1.10;;;11.00;99.90;;;;;;4939172;28;20279;-75
2023/12/31 04:31:46;;;;;;;2.17;1.30;;;11.00;99.90;;;;;;4987822;28;22576;-74
2023/12/31 04:34:12;;;;;;;1.80;1.10;;;11.00;99.90;;;;;;4942300;28;20614;-74
2023/12/31 04:36:45;;;;;;;2.40;1.50;;;11.00;99.90;;;;;;4973879;28;20245;-74
2023/12/31 04:39:12;;;;;;;1.65;1.08;;;11.00;99.90;;;;;;4957953;28;20642;-74
2023/12/31 04:41:38;;;;;;;2.00;1.10;;;11.00;99.90;;;;;;4990479;28;20265;-74
2023/12/31 04:44:04;;;;;;;2.53;1.40;;;10.90;99.90;;;;;;4991499;28;20704;-74
2023/12/31 04:46:30;;;;;;;1.67;1.13;;;10.90;99.90;;;;;;4973728;28;20190;-74
2023/12/31 04:48:56;;;;;;;1.83;1.20;;;11.00;99.90;;;;;;4974218;28;20175;-74
2023/12/31 04:51:29;;;;;;;1.90;1.30;;;11.00;99.90;;;;;;4957949;28;20641;-74
2023/12/31 04:53:56;;;;;;;3.88;1.08;;;10.90;99.90;;;;;;4973571;28;20646;-74
2023/12/31 04:56:25;;;;;;;2.33;1.20;;;10.90;99.90;;;;;;4957747;28;20178;-75
2023/12/31 04:58:53;;;;;;;1.92;1.10;;;10.90;99.90;;;;;;4973630;28;20171;-74
2023/12/31 05:01:19;;;;;;;2.40;1.00;;;10.90;99.90;;;;;;4957995;28;20218;-74
2023/12/31 05:03:46;;;;;;;1.92;1.10;;;10.90;99.90;;;;;;4975753;28;20202;-74
2023/12/31 05:06:13;;;;;;;2.65;0.90;;;10.90;99.90;;;;;;4973210;28;20266;-74
2023/12/31 05:08:43;;;;;;;3.20;1.10;;;10.90;99.90;;;;;;4991547;28;20282;-74
2023/12/31 05:11:10;;;;;;;2.03;1.00;;;10.90;99.90;;;;;;4991172;28;20194;-74
2023/12/31 05:13:36;;;;;;;3.65;1.13;;;10.90;99.90;;;;;;4957317;28;20265;-74
2023/12/31 05:16:02;;;;;;;3.75;1.42;;;11.00;99.90;;;;;;4972953;28;20225;-74
2023/12/31 05:18:28;;;;;;;2.23;1.20;;;10.90;99.90;;;;;;4973567;28;20218;-74
2023/12/31 05:20:53;;;;;;;1.57;0.90;;;10.90;99.90;;;;;;4990830;28;21155;-72
2023/12/31 05:23:19;;;;;;;1.70;0.93;;;10.90;99.90;;;;;;4973242;28;20199;-73
2023/12/31 05:25:45;;;;;;;1.80;1.10;;;10.90;99.90;;;;;;4990403;28;20227;-73
2023/12/31 05:28:11;;;;;;;3.33;1.57;;;10.90;99.90;;;;;;4973313;28;20203;-73
2023/12/31 05:30:41;;;;;;;1.60;1.00;;;11.00;99.90;;;;;;4973560;28;20178;-74
2023/12/31 05:33:07;;;;;;;1.50;1.10;;;11.00;99.90;;;;;;4990650;28;20219;-74
2023/12/31 05:35:33;;;;;;;2.05;1.10;;;11.00;99.90;;;;;;4990220;28;20387;-74
2023/12/31 05:37:59;;;;;;;1.83;0.90;;;11.00;99.90;;;;;;4957179;28;20269;-74
2023/12/31 05:40:24;;;;;;;2.23;1.10;;;11.10;99.90;;;;;;4976930;28;20673;-74
2023/12/31 05:42:50;;;;;;;1.70;1.03;;;11.10;99.90;;;;;;4957011;28;20743;-74
2023/12/31 05:45:18;;;;;;;1.90;0.97;;;11.10;99.90;;;;;;4972964;28;20175;-74
2023/12/31 05:47:44;;;;;;;1.77;0.90;;;11.10;99.90;;;;;;4957312;28;20521;-74
2023/12/31 05:50:10;;;;;;;3.20;1.67;;;11.10;99.90;;;;;;4973163;28;20277;-73
2023/12/31 05:52:35;;;;;;;1.87;1.00;;;11.10;99.90;;;;;;4990436;28;20720;-74
2023/12/31 05:55:01;;;;;;;1.77;0.90;;;11.10;99.90;;;;;;4990872;28;20178;-74
2023/12/31 05:57:27;;;;;;;3.37;1.30;;;11.10;99.90;;;;;;4973002;28;20178;-74
2023/12/31 05:59:53;;;;;;;2.23;1.20;;;11.20;99.90;;;;;;4990695;28;20171;-74
2023/12/31 06:02:18;;;;;;;2.00;1.00;;;11.20;99.90;;;;;;4973248;28;20669;-74
2023/12/31 06:04:44;;;;;;;2.10;1.20;;;11.20;99.90;;;;;;4990699;28;20183;-74
2023/12/31 06:07:09;;;;;;;1.60;1.13;;;11.20;99.90;;;;;;4990126;28;20267;-74
2023/12/31 06:09:35;;;;;;;2.07;1.30;;;11.10;99.90;;;;;;4990832;28;20318;-74
2023/12/31 06:12:01;;;;;;;2.77;1.13;;;11.10;99.90;;;;;;4976367;28;20214;-74
2023/12/31 06:14:26;;;;;;;1.80;1.10;;;11.20;99.90;;;;;;4976863;28;20199;-74
2023/12/31 06:16:52;;;;;;;2.10;1.20;;;11.10;99.90;;;;;;4976496;28;20605;-74
2023/12/31 06:19:18;;;;;;;2.00;1.03;;;11.10;99.90;;;;;;4996361;28;20179;-74
2023/12/31 06:21:43;;;;;;;1.90;0.90;;;11.10;99.90;;;;;;4994327;28;20190;-74
2023/12/31 06:24:09;;;;;;;1.90;1.00;;;11.10;99.90;;;;;;4944393;28;20202;-73
2023/12/31 06:26:34;;;;;;;1.60;0.93;;;11.20;99.90;;;;;;4976342;28;20179;-74
2023/12/31 06:29:00;;;;;;;1.90;1.20;;;11.10;99.90;;;;;;4976615;28;20293;-73
2023/12/31 06:31:26;;;;;;;1.77;1.00;;;11.20;99.90;;;;;;4994253;28;20273;-74
2023/12/31 06:33:52;;;;;;;2.10;1.00;;;11.20;99.90;;;;;;4993702;28;20300;-73
2023/12/31 06:36:18;;;;;;;1.90;1.00;;;11.20;99.90;;;;;;4975997;28;20211;-73
2023/12/31 06:38:43;;;;;;;1.87;0.90;;;11.30;99.90;;;;;;4994144;28;20178;-74
2023/12/31 06:41:09;;;;;;;1.80;1.00;;;11.20;99.90;;;;;;4976584;28;20644;-73
2023/12/31 06:43:35;;;;;;;1.87;0.97;;;11.20;99.90;;;;;;4994043;28;20290;-73
2023/12/31 06:46:02;;;;;;;2.80;1.58;;;11.30;99.90;;;;;;4975908;28;20194;-73
2023/12/31 06:48:28;;;;;;;2.22;0.90;;;11.40;99.90;;;;;;4960222;28;20202;-73
2023/12/31 06:50:53;;;;;;;2.50;1.13;;;11.40;99.90;;;;;;4976440;28;20179;-73
2023/12/31 06:53:20;;;;;;;1.87;1.00;;;11.40;99.90;;;;;;4975993;28;20203;-73
2023/12/31 06:55:46;;;;;;;2.05;0.90;;;11.40;99.90;;;;;;4963853;28;20205;-73
2023/12/31 06:58:21;;;;;;;2.17;1.00;;;11.50;99.90;;;;;;4960097;28;20175;-73
2023/12/31 07:00:47;;;;;;;3.60;1.20;;;11.40;99.90;;;;;;4993787;28;20640;-73
2023/12/31 07:03:13;;;;;;;1.90;1.10;;;11.50;99.90;;;;;;4975486;28;20590;-73
2023/12/31 07:05:38;;;;;;;2.13;1.20;;;11.40;99.90;;;;;;4993001;28;20191;-74
2023/12/31 07:08:04;;;;;;;2.70;1.20;;;11.40;99.90;;;;;;4959747;28;20314;-74
2023/12/31 07:10:30;;;;;;;1.70;0.80;;;11.50;99.90;;;;;;4959990;28;20183;-74
2023/12/31 07:12:56;;;;;;;1.60;0.97;;;11.50;99.90;;;;;;4975615;28;20210;-74
2023/12/31 07:15:21;;;;;;;2.10;1.20;;;11.50;99.90;;;;;;4975464;28;20533;-74
2023/12/31 07:17:47;;;;;;;1.70;0.77;;;11.40;99.90;;;;;;4993204;28;20546;-74
2023/12/31 07:20:13;;;;;;;1.60;0.93;;;11.40;99.90;;;;;;4993303;28;20668;-74
2023/12/31 07:22:38;;;;;;;2.17;0.90;;;11.50;99.90;;;;;;4992960;28;20215;-74
2023/12/31 07:25:05;;;;;;;1.40;0.93;;;11.50;99.90;;;;;;4975607;28;20179;-74
2023/12/31 07:27:31;;;;;;;1.73;1.10;;;11.50;99.90;;;;;;4975120;28;20183;-74
2023/12/31 07:29:56;;;;;;;2.17;1.00;;;11.50;99.90;;;;;;4975631;28;20187;-74
2023/12/31 07:32:22;;;;;;;2.50;1.27;;;11.50;99.90;;;;;;4962906;28;20285;-75
2023/12/31 07:34:48;;;;;;;1.50;0.90;;;11.50;99.90;;;;;;4991991;28;20178;-76
2023/12/31 07:37:13;;;;;;;1.90;1.00;;;11.40;99.90;;;;;;4975180;28;20178;-76
2023/12/31 07:39:42;;;;;;;1.90;1.17;;;11.40;99.90;;;;;;4975876;28;20177;-76
2023/12/31 07:42:09;;;;;;;1.73;0.90;;;11.40;99.90;;;;;;4993471;28;20175;-76
2023/12/31 07:44:35;;;;;;;4.82;0.90;;;11.30;99.90;;;;;;4970325;28;20204;-76
2023/12/31 07:47:03;;;;;;;2.55;0.90;;;11.30;99.90;;;;;;4990273;28;20632;-76
2023/12/31 07:49:30;;;;;;;1.70;1.00;;;11.30;99.90;;;;;;4992135;28;20179;-76
2023/12/31 07:51:56;;;;;;;2.85;1.35;;;11.30;99.90;;;;;;4993202;28;20510;-76
2023/12/31 07:54:23;;;;;;;1.87;1.10;;;11.30;99.90;;;;;;4992778;28;20201;-76
2023/12/31 07:56:49;;;;;;;2.65;1.40;;;11.30;99.90;;;;;;4992813;28;20939;-76
2023/12/31 07:59:15;;;;;;;2.25;1.17;;;11.30;99.90;;;;;;4983628;28;20210;-76
2023/12/31 08:01:41;;;;;;;3.17;1.33;;;11.30;99.90;;;;;;4992845;28;20175;-76
2023/12/31 08:04:06;;;;;;;2.00;1.27;;;11.30;99.90;;;;;;4975489;28;20202;-76
2023/12/31 08:06:32;;;;;;;2.70;1.03;;;11.40;99.90;;;;;;4975669;28;20218;-76
2023/12/31 08:08:58;;;;;;;2.13;1.20;;;11.30;99.90;;;;;;4977835;28;20183;-75
2023/12/31 08:11:23;;;;;;;1.80;1.10;;;11.30;99.90;;;;;;4976554;28;20175;-76
2023/12/31 08:13:49;;;;;;;2.50;1.13;;;11.40;99.90;;;;;;4991322;28;20211;-75
2023/12/31 08:16:15;;;;;;;1.50;0.80;;;11.40;99.90;;;;;;4974612;28;20190;-75
2023/12/31 08:18:40;;;;;;;2.03;1.00;;;11.40;99.90;;;;;;4986998;28;20187;-76
2023/12/31 08:21:06;;;;;;;1.80;0.80;;;11.40;99.90;;;;;;4964629;28;20599;-75
2023/12/31 08:23:32;;;;;;;1.70;0.90;;;11.50;99.90;;;;;;4992033;28;20201;-75
2023/12/31 08:25:58;;;;;;;4.32;1.27;;;11.50;99.90;;;;;;4992122;28;20191;-76
2023/12/31 08:28:24;;;;;;;3.90;1.40;;;11.50;99.90;;;;;;4952143;28;20184;-76
2023/12/31 08:30:49;;;;;;;2.83;1.00;;;11.50;99.90;;;;;;4992063;28;20175;-75
2023/12/31 08:33:15;;;;;;;1.87;1.07;;;11.50;99.90;;;;;;4991048;28;20277;-75
2023/12/31 08:35:42;;;;;;;1.87;1.27;;;11.60;99.90;;;;;;4957935;28;20176;-74
2023/12/31 08:38:08;;;;;;;2.63;1.60;;;11.60;99.90;;;;;;4955747;28;20271;-74
2023/12/31 08:40:34;;;;;;;2.28;1.30;;;11.70;99.90;;;;;;4992044;28;20170;-74
2023/12/31 08:43:01;;;;;;;5.13;1.20;;;11.60;99.90;;;;;;4974213;28;20203;-74
2023/12/31 08:45:27;;;;;;;3.17;1.00;;;11.70;99.90;;;;;;4991178;28;20205;-74
2023/12/31 08:47:53;;;;;;;1.60;1.00;;;11.70;99.90;;;;;;4991584;28;20186;-74
2023/12/31 08:50:19;;;;;;;5.63;1.02;;;11.80;99.90;;;;;;4973726;28;20694;-74
2023/12/31 08:52:46;;;;;;;2.27;1.17;;;11.90;99.90;;;;;;4957782;28;20289;-74
2023/12/31 08:55:12;;;;;;;2.95;1.20;;;11.90;99.90;;;;;;4970058;28;20641;-73
2023/12/31 08:57:43;;;;;;;2.53;1.40;;;11.90;99.90;;;;;;4991964;28;20653;-74
2023/12/31 09:00:09;;;;;;;3.50;1.10;;;12.00;99.90;;;;;;4992855;28;20183;-74
2023/12/31 09:02:35;;;;;;;2.53;1.20;;;12.00;99.90;;;;;;4973760;28;20622;-74
2023/12/31 09:05:02;;;;;;;2.13;1.17;;;12.00;99.90;;;;;;4973823;28;20870;-74
2023/12/31 09:07:28;;;;;;;1.90;1.17;;;12.10;99.90;;;;;;4973028;28;20602;-74
2023/12/31 09:09:53;;;;;;;3.10;1.23;;;12.10;99.90;;;;;;4990801;28;20525;-74
2023/12/31 09:12:20;;;;;;;2.63;1.50;;;12.00;99.90;;;;;;4984322;28;20207;-74
2023/12/31 09:14:45;;;;;;;2.63;1.50;;;12.10;99.90;;;;;;4968530;28;20532;-74
2023/12/31 09:17:11;;;;;;;2.20;1.00;;;12.10;99.90;;;;;;4990262;28;20605;-73
2023/12/31 09:19:38;;;;;;;3.13;1.47;;;12.20;99.90;;;;;;4991366;28;20750;-74
2023/12/31 09:22:04;;;;;;;2.60;1.10;;;12.20;99.90;;;;;;4957406;28;20211;-74
2023/12/31 09:24:31;;;;;;;1.80;1.20;;;12.20;99.90;;;;;;4994486;28;20757;-74
2023/12/31 09:26:57;;;;;;;2.13;1.40;;;12.30;99.90;;;;;;4990523;28;20678;-74
2023/12/31 09:29:23;;;;;;;2.17;1.23;;;12.30;99.90;;;;;;4973469;28;20594;-74
2023/12/31 09:31:49;;;;;;;2.33;1.30;;;12.30;99.90;;;;;;4990734;28;20679;-75
2023/12/31 09:34:15;;;;;;;2.20;1.20;;;12.40;99.90;;;;;;4973139;28;20612;-74
2023/12/31 09:36:41;;;;;;;1.80;1.20;;;12.40;99.90;;;;;;4973012;28;20594;-74
2023/12/31 09:39:08;;;;;;;2.13;1.70;;;12.50;99.90;;;;;;4973367;28;20222;-74
2023/12/31 09:41:36;;;;;;;2.37;1.40;;;12.50;99.90;;;;;;4972718;28;20588;-74
2023/12/31 09:44:03;;;;;;;3.00;2.10;;;12.40;99.90;;;;;;4968206;28;20626;-74
2023/12/31 09:46:32;;;;;;;3.47;1.90;;;12.50;99.90;;;;;;4977660;28;20593;-75
2023/12/31 09:48:59;;;;;;;2.47;1.47;;;12.50;99.90;;;;;;4977600;28;20653;-74
2023/12/31 09:51:26;;;;;;;2.40;1.80;;;12.50;99.90;;;;;;4977407;28;20587;-74
2023/12/31 09:53:53;;;;;;;2.22;1.27;;;12.60;99.90;;;;;;4994463;28;20700;-74
2023/12/31 09:56:21;;;;;;;1.93;1.30;;;12.60;99.90;;;;;;4994408;28;20185;-74
2023/12/31 09:58:50;;;;;;;3.70;1.30;;;12.70;99.90;;;;;;4977270;28;20941;-74
2023/12/31 10:01:16;;;;;;;2.63;2.17;;;12.70;99.90;;;;;;4980573;28;20597;-74
2023/12/31 10:03:44;;;;;;;3.00;1.50;;;12.80;99.90;;;;;;4976904;28;21191;-74
2023/12/31 10:06:10;;;;;;;2.30;1.30;;;12.90;99.90;;;;;;4993084;28;20667;-74
2023/12/31 10:08:40;;;;;;;2.00;1.33;;;13.00;99.90;;;;;;4994710;28;20600;-74
2023/12/31 10:11:06;;;;;;;2.75;1.50;;;13.00;99.90;;;;;;4994529;28;20582;-74
2023/12/31 10:13:32;;;;;;;2.40;1.47;;;13.10;99.90;;;;;;4976131;28;20206;-74
2023/12/31 10:15:58;;;;;;;2.50;1.27;;;13.20;99.90;;;;;;4976595;28;20586;-74
2023/12/31 10:18:27;;;;;;;2.77;1.43;;;13.20;99.90;;;;;;4960921;28;20206;-74
2023/12/31 10:20:53;;;;;;;2.57;1.73;;;13.30;99.90;;;;;;4977201;28;20663;-74
2023/12/31 10:23:18;;;;;;;2.57;1.37;;;13.40;99.90;;;;;;4960533;28;21202;-74
2023/12/31 10:25:44;;;;;;;1.93;0.93;;;13.50;99.90;;;;;;4993616;28;20596;-74
2023/12/31 10:28:10;;;;;;;1.40;0.80;;;13.60;99.90;;;;;;4960702;28;20183;-74
2023/12/31 10:30:39;;;;;;;1.97;0.97;;;13.70;99.90;;;;;;4994524;28;20590;-74
2023/12/31 10:33:10;;;;;;;1.90;1.00;;;13.70;99.90;;;;;;4976423;28;20214;-74
2023/12/31 10:35:37;;;;;;;1.60;0.80;;;13.80;99.90;;;;;;4993726;28;20590;-74
2023/12/31 10:38:04;;;;;;;2.43;0.80;;;13.80;99.90;;;;;;4979499;28;20582;-74
2023/12/31 10:40:33;;;;;;;1.93;0.70;;;13.90;99.90;;;;;;4992047;28;20641;-74
2023/12/31 10:42:59;;;;;;;1.87;0.80;;;13.90;99.90;;;;;;4960130;28;20721;-75
2023/12/31 10:45:26;;;;;;;1.50;0.70;;;13.90;99.90;;;;;;4959771;28;20590;-74
2023/12/31 10:47:56;;;;;;;2.10;0.70;;;13.90;99.90;;;;;;4979776;28;20582;-75
2023/12/31 10:50:25;;;;;;;2.17;0.70;;;13.90;99.90;;;;;;4993780;28;20629;-74
2023/12/31 10:53:01;;;;;;;1.40;0.60;;;13.90;99.90;;;;;;4972140;28;20651;-74
2023/12/31 10:55:27;;;;;;;1.30;0.60;;;13.90;99.90;;;;;;4975196;28;21222;-78
2023/12/31 10:58:06;;;;;;;1.20;0.40;;;13.90;99.90;;;;;;4977304;28;20587;-77
2023/12/31 11:00:32;;;;;;;1.20;0.43;;;13.80;99.90;;;;;;4993981;28;20174;-77
2023/12/31 11:03:00;;;;;;;2.90;0.60;;;13.80;99.90;;;;;;4976484;28;20618;-77
2023/12/31 11:05:27;;;;;;;3.73;0.60;;;13.80;99.90;;;;;;4993183;28;20582;-76
2023/12/31 11:07:56;;;;;;;1.83;0.63;;;13.80;99.90;;;;;;4993434;28;20606;-76
2023/12/31 11:10:22;;;;;;;1.33;0.60;;;13.70;99.90;;;;;;4975880;28;20586;-74
2023/12/31 11:12:50;;;;;;;1.80;0.60;;;13.70;99.90;;;;;;4976087;28;20653;-77
2023/12/31 11:15:19;;;;;;;1.40;0.50;;;13.70;99.90;;;;;;5001883;28;20181;-77
2023/12/31 11:18:07;;;;;;;1.40;0.50;;;13.70;99.90;;;;;;4992834;28;20590;-77
2023/12/31 11:20:32;;;;;;;1.57;0.60;;;13.60;99.90;;;;;;4976235;28;20696;-75
2023/12/31 11:23:17;;;;;;;3.40;0.53;;;13.60;99.90;;;;;;4993465;28;20720;-76
2023/12/31 11:25:45;;;;;;;1.50;0.50;;;13.60;99.90;;;;;;4974145;28;20179;-76
2023/12/31 11:28:11;;;;;;;2.07;0.50;;;13.60;99.90;;;;;;4979220;28;20939;-76
2023/12/31 11:31:02;;;;;;;1.30;0.80;;;13.60;99.90;;;;;;4959673;28;20644;-76
2023/12/31 11:33:34;;;;;;;1.30;0.50;;;13.50;99.90;;;;;;4974996;28;20221;-75
2023/12/31 11:36:14;;;;;;;2.13;0.60;;;13.50;99.90;;;;;;4974269;28;20586;-75
2023/12/31 11:38:59;;;;;;;1.30;0.40;;;13.50;99.90;;;;;;4984308;28;20596;-75
2023/12/31 11:41:45;;;;;;;1.40;0.50;;;13.50;99.90;;;;;;4992962;28;20589;-75
2023/12/31 11:44:50;;;;;;;1.20;0.50;;;13.50;99.90;;;;;;4975221;28;20644;-75
2023/12/31 11:47:16;;;;;;;1.77;0.60;;;13.60;99.90;;;;;;4901008;29;20597;-75
2023/12/31 11:49:58;;;;;;;1.70;0.50;;;13.60;99.90;;;;;;4944143;29;20588;-75
2023/12/31 11:52:53;;;;;;;3.57;0.50;;;13.60;99.90;;;;;;4954457;28;21019;-75
2023/12/31 11:55:18;;;;;;;1.60;0.60;;;13.60;99.90;;;;;;4963356;28;20772;-76
2023/12/31 11:57:46;;;;;;;1.50;0.50;;;13.60;99.90;;;;;;4993088;28;20685;-75
2023/12/31 12:00:12;;;;;;;1.37;0.50;;;13.60;99.90;;;;;;4975255;28;20186;-75
2023/12/31 12:02:37;;;;;;;1.30;0.50;;;13.60;99.90;;;;;;4975116;28;20599;-75
2023/12/31 12:05:04;;;;;;;2.23;0.63;;;13.70;99.90;;;;;;4993030;28;20597;-76
2023/12/31 12:07:29;;;;;;;2.10;0.60;;;13.70;99.90;;;;;;4974264;28;20299;-75
2023/12/31 12:09:55;;;;;;;1.60;0.80;;;13.60;99.90;;;;;;4974604;28;20721;-74
2023/12/31 12:12:22;;;;;;;1.80;0.70;;;13.60;99.90;;;;;;4991953;28;20629;-74
2023/12/31 12:14:51;;;;;;;1.53;0.80;;;13.60;99.90;;;;;;4958866;28;20587;-75
2023/12/31 12:17:17;;;;;;;1.60;0.50;;;13.60;99.90;;;;;;4991823;28;20905;-75
2023/12/31 12:19:43;;;;;;;1.63;0.60;;;13.60;99.90;;;;;;4992508;28;20641;-75
2023/12/31 12:22:09;;;;;;;1.30;0.50;;;13.60;99.90;;;;;;4991974;28;20197;-76
2023/12/31 12:24:35;;;;;;;1.20;0.50;;;13.60;99.90;;;;;;4973870;28;20626;-76
2023/12/31 12:27:03;;;;;;;1.20;0.40;;;13.60;99.90;;;;;;4971563;28;20590;-76
2023/12/31 12:29:29;;;;;;;1.10;0.40;;;13.50;99.90;;;;;;4991883;28;20582;-76
2023/12/31 12:31:57;;;;;;;1.87;0.50;;;13.60;99.90;;;;;;4974453;28;20590;-76
2023/12/31 12:34:22;;;;;;;1.40;0.50;;;13.50;99.90;;;;;;4991555;28;20616;-75
2023/12/31 12:36:49;;;;;;;1.17;0.40;;;13.60;99.90;;;;;;4990408;28;20963;-76
2023/12/31 12:39:15;;;;;;;1.30;0.60;;;13.50;99.90;;;;;;4974165;28;20221;-75
2023/12/31 12:41:48;;;;;;;2.17;0.53;;;13.60;99.90;;;;;;4974279;28;20578;-75
2023/12/31 12:44:15;;;;;;;1.30;0.40;;;13.50;99.90;;;;;;4974026;28;21214;-76
2023/12/31 12:46:48;;;;;;;1.50;0.60;;;13.50;99.90;;;;;;4991455;28;20684;-76